sensor_id;sensor_type;location;lat;lon;timestamp;pressure;altitude;pressure_sealevel;temperature;humidity
60817;BME280;51921;51.518;-3.188;2023-08-21T00:00:29;101978.17;;;17.42;85.92
60817;BME280;51921;51.518;-3.188;2023-08-21T00:02:54;101983.23;;;18.13;81.12
60817;BME280;51921;51.518;-3.188;2023-08-21T00:05:19;101985.51;;;17.74;83.03
60817;BME280;51921;51.518;-3.188;2023-08-21T00:07:45;101985.64;;;18.30;82.60
60817;BME280;51921;51.518;-3.188;2023-08-21T00:10:10;101981.75;;;17.79;83.61
60817;BME280;51921;51.518;-3.188;2023-08-21T00:12:36;101985.44;;;18.17;83.40
60817;BME280;51921;51.518;-3.188;2023-08-21T00:15:01;101982.17;;;17.71;82.95
60817;BME280;51921;51.518;-3.188;2023-08-21T00:17:26;101980.82;;;18.75;79.46
60817;BME280;51921;51.518;-3.188;2023-08-21T00:19:52;101980.85;;;18.75;77.57
60817;BME280;51921;51.518;-3.188;2023-08-21T00:22:17;101981.05;;;18.58;78.77
60817;BME280;51921;51.518;-3.188;2023-08-21T00:24:43;101979.42;;;18.65;78.79
60817;BME280;51921;51.518;-3.188;2023-08-21T00:27:08;101980.79;;;17.25;83.42
60817;BME280;51921;51.518;-3.188;2023-08-21T00:29:33;101980.30;;;17.30;85.94
60817;BME280;51921;51.518;-3.188;2023-08-21T00:31:58;101979.42;;;17.73;86.94
60817;BME280;51921;51.518;-3.188;2023-08-21T00:34:24;101979.17;;;18.80;81.61
60817;BME280;51921;51.518;-3.188;2023-08-21T00:36:49;101976.98;;;18.86;80.30
60817;BME280;51921;51.518;-3.188;2023-08-21T00:39:15;101973.73;;;19.91;76.02
60817;BME280;51921;51.518;-3.188;2023-08-21T00:41:40;101976.82;;;18.85;78.51
60817;BME280;51921;51.518;-3.188;2023-08-21T00:44:05;101976.38;;;20.79;71.42
60817;BME280;51921;51.518;-3.188;2023-08-21T00:46:31;101974.90;;;21.46;70.72
60817;BME280;51921;51.518;-3.188;2023-08-21T00:48:56;101977.65;;;16.45;93.13
60817;BME280;51921;51.518;-3.188;2023-08-21T00:51:22;101974.46;;;14.58;100.00
60817;BME280;51921;51.518;-3.188;2023-08-21T00:53:47;101971.21;;;14.19;100.00
60817;BME280;51921;51.518;-3.188;2023-08-21T00:56:13;101973.32;;;14.29;100.00
60817;BME280;51921;51.518;-3.188;2023-08-21T00:58:37;101972.22;;;15.51;100.00
60817;BME280;51921;51.518;-3.188;2023-08-21T01:01:03;101967.29;;;14.52;100.00
60817;BME280;51921;51.518;-3.188;2023-08-21T01:03:28;101963.47;;;15.02;100.00
60817;BME280;51921;51.518;-3.188;2023-08-21T01:05:54;101964.32;;;15.25;100.00
60817;BME280;51921;51.518;-3.188;2023-08-21T01:08:24;101963.86;;;15.91;100.00
60817;BME280;51921;51.518;-3.188;2023-08-21T01:10:51;101967.00;;;15.62;100.00
60817;BME280;51921;51.518;-3.188;2023-08-21T01:13:17;101971.58;;;17.28;99.80
60817;BME280;51921;51.518;-3.188;2023-08-21T01:15:36;101970.83;;;17.26;96.82
60817;BME280;51921;51.518;-3.188;2023-08-21T01:18:01;101968.64;;;18.81;86.31
60817;BME280;51921;51.518;-3.188;2023-08-21T01:20:26;101968.29;;;17.65;90.45
60817;BME280;51921;51.518;-3.188;2023-08-21T01:22:51;101970.97;;;17.25;90.88
60817;BME280;51921;51.518;-3.188;2023-08-21T01:25:16;101967.20;;;17.77;89.62
60817;BME280;51921;51.518;-3.188;2023-08-21T01:27:43;101971.99;;;17.57;89.54
60817;BME280;51921;51.518;-3.188;2023-08-21T01:30:08;101974.35;;;16.93;89.12
60817;BME280;51921;51.518;-3.188;2023-08-21T01:32:53;101973.56;;;16.45;94.21
60817;BME280;51921;51.518;-3.188;2023-08-21T01:34:58;101971.64;;;15.27;100.00
60817;BME280;51921;51.518;-3.188;2023-08-21T01:37:24;101971.80;;;16.60;96.50
60817;BME280;51921;51.518;-3.188;2023-08-21T01:39:48;101968.50;;;15.80;99.59
60817;BME280;51921;51.518;-3.188;2023-08-21T01:42:14;101972.06;;;16.19;96.31
60817;BME280;51921;51.518;-3.188;2023-08-21T01:44:39;101967.04;;;17.51;89.81
60817;BME280;51921;51.518;-3.188;2023-08-21T01:47:05;101969.15;;;17.08;88.28
60817;BME280;51921;51.518;-3.188;2023-08-21T01:49:30;101968.22;;;15.74;98.90
60817;BME280;51921;51.518;-3.188;2023-08-21T01:51:55;101965.72;;;15.01;100.00
60817;BME280;51921;51.518;-3.188;2023-08-21T01:54:20;101966.69;;;16.53;96.45
60817;BME280;51921;51.518;-3.188;2023-08-21T01:56:45;101965.15;;;16.01;96.76
60817;BME280;51921;51.518;-3.188;2023-08-21T01:59:11;101964.71;;;17.47;87.17
60817;BME280;51921;51.518;-3.188;2023-08-21T02:01:36;101959.69;;;20.35;72.79
60817;BME280;51921;51.518;-3.188;2023-08-21T02:04:01;101963.27;;;17.99;82.41
60817;BME280;51921;51.518;-3.188;2023-08-21T02:06:26;101962.72;;;19.20;76.62
60817;BME280;51921;51.518;-3.188;2023-08-21T02:08:52;101965.04;;;17.67;81.63
60817;BME280;51921;51.518;-3.188;2023-08-21T02:11:17;101964.74;;;16.81;86.98
60817;BME280;51921;51.518;-3.188;2023-08-21T02:13:43;101965.55;;;16.28;90.11
60817;BME280;51921;51.518;-3.188;2023-08-21T02:16:08;101963.09;;;16.62;89.61
60817;BME280;51921;51.518;-3.188;2023-08-21T02:18:33;101963.80;;;16.87;88.44
60817;BME280;51921;51.518;-3.188;2023-08-21T02:21:00;101964.48;;;16.42;89.78
60817;BME280;51921;51.518;-3.188;2023-08-21T02:23:24;101963.09;;;17.18;86.62
60817;BME280;51921;51.518;-3.188;2023-08-21T02:25:50;101960.61;;;16.83;88.41
60817;BME280;51921;51.518;-3.188;2023-08-21T02:28:15;101959.49;;;17.13;86.00
60817;BME280;51921;51.518;-3.188;2023-08-21T02:30:40;101953.00;;;16.42;87.40
60817;BME280;51921;51.518;-3.188;2023-08-21T02:33:05;101951.63;;;16.82;85.70
60817;BME280;51921;51.518;-3.188;2023-08-21T02:35:31;101950.39;;;16.52;87.48
60817;BME280;51921;51.518;-3.188;2023-08-21T02:37:56;101946.80;;;17.60;84.33
60817;BME280;51921;51.518;-3.188;2023-08-21T02:40:21;101950.21;;;17.24;83.86
60817;BME280;51921;51.518;-3.188;2023-08-21T02:42:47;101950.39;;;16.93;83.99
60817;BME280;51921;51.518;-3.188;2023-08-21T02:45:12;101947.06;;;17.60;82.56
60817;BME280;51921;51.518;-3.188;2023-08-21T02:47:38;101945.35;;;17.66;81.08
60817;BME280;51921;51.518;-3.188;2023-08-21T02:50:04;101948.69;;;17.68;80.96
60817;BME280;51921;51.518;-3.188;2023-08-21T02:52:28;101951.77;;;17.29;80.88
60817;BME280;51921;51.518;-3.188;2023-08-21T02:54:54;101952.45;;;19.49;73.33
60817;BME280;51921;51.518;-3.188;2023-08-21T02:57:19;101954.75;;;18.25;83.26
60817;BME280;51921;51.518;-3.188;2023-08-21T02:59:44;101957.10;;;17.71;89.18
60817;BME280;51921;51.518;-3.188;2023-08-21T03:02:10;101954.02;;;16.72;94.04
60817;BME280;51921;51.518;-3.188;2023-08-21T03:04:35;101957.11;;;17.00;95.48
60817;BME280;51921;51.518;-3.188;2023-08-21T03:07:00;101958.42;;;16.02;99.36
60817;BME280;51921;51.518;-3.188;2023-08-21T03:09:26;101961.27;;;16.82;95.85
60817;BME280;51921;51.518;-3.188;2023-08-21T03:11:51;101963.41;;;14.68;100.00
60817;BME280;51921;51.518;-3.188;2023-08-21T03:14:17;101960.77;;;16.06;100.00
60817;BME280;51921;51.518;-3.188;2023-08-21T03:16:42;101959.37;;;17.93;89.98
60817;BME280;51921;51.518;-3.188;2023-08-21T03:19:07;101962.50;;;16.13;97.41
60817;BME280;51921;51.518;-3.188;2023-08-21T03:21:33;101958.81;;;16.37;100.00
60817;BME280;51921;51.518;-3.188;2023-08-21T03:23:59;101957.81;;;17.76;91.67
60817;BME280;51921;51.518;-3.188;2023-08-21T03:26:24;101960.21;;;16.86;92.94
60817;BME280;51921;51.518;-3.188;2023-08-21T03:28:49;101956.11;;;16.43;96.98
60817;BME280;51921;51.518;-3.188;2023-08-21T03:31:14;101962.07;;;16.26;99.48
60817;BME280;51921;51.518;-3.188;2023-08-21T03:33:40;101960.82;;;16.13;98.39
60817;BME280;51921;51.518;-3.188;2023-08-21T03:36:06;101958.25;;;16.26;96.43
60817;BME280;51921;51.518;-3.188;2023-08-21T03:38:31;101953.00;;;16.99;95.99
60817;BME280;51921;51.518;-3.188;2023-08-21T03:40:56;101948.10;;;16.24;96.97
60817;BME280;51921;51.518;-3.188;2023-08-21T03:43:21;101947.26;;;16.62;93.81
60817;BME280;51921;51.518;-3.188;2023-08-21T03:45:46;101941.35;;;17.64;88.14
60817;BME280;51921;51.518;-3.188;2023-08-21T03:48:12;101943.49;;;17.21;89.62
60817;BME280;51921;51.518;-3.188;2023-08-21T03:50:37;101944.61;;;16.57;94.19
60817;BME280;51921;51.518;-3.188;2023-08-21T03:53:03;101937.32;;;14.89;100.00
60817;BME280;51921;51.518;-3.188;2023-08-21T03:55:28;101935.73;;;15.46;100.00
60817;BME280;51921;51.518;-3.188;2023-08-21T03:57:53;101935.56;;;15.13;100.00
60817;BME280;51921;51.518;-3.188;2023-08-21T04:00:18;101940.57;;;16.23;100.00
60817;BME280;51921;51.518;-3.188;2023-08-21T04:02:44;101940.00;;;16.43;98.07
60817;BME280;51921;51.518;-3.188;2023-08-21T04:05:09;101942.91;;;15.89;99.41
60817;BME280;51921;51.518;-3.188;2023-08-21T04:07:34;101941.60;;;15.41;100.00
60817;BME280;51921;51.518;-3.188;2023-08-21T04:10:00;101942.64;;;16.26;99.57
60817;BME280;51921;51.518;-3.188;2023-08-21T04:12:25;101942.34;;;16.77;95.70
60817;BME280;51921;51.518;-3.188;2023-08-21T04:14:50;101943.44;;;17.03;94.81
60817;BME280;51921;51.518;-3.188;2023-08-21T04:17:20;101941.71;;;17.04;93.32
60817;BME280;51921;51.518;-3.188;2023-08-21T04:19:41;101939.53;;;17.93;87.83
60817;BME280;51921;51.518;-3.188;2023-08-21T04:22:07;101944.81;;;16.40;93.13
60817;BME280;51921;51.518;-3.188;2023-08-21T04:24:32;101942.94;;;17.21;90.45
60817;BME280;51921;51.518;-3.188;2023-08-21T04:26:57;101938.73;;;17.56;88.41
60817;BME280;51921;51.518;-3.188;2023-08-21T04:29:23;101938.62;;;17.26;89.39
60817;BME280;51921;51.518;-3.188;2023-08-21T04:31:48;101939.29;;;16.73;89.69
60817;BME280;51921;51.518;-3.188;2023-08-21T04:34:13;101942.63;;;17.24;90.77
60817;BME280;51921;51.518;-3.188;2023-08-21T04:36:39;101941.61;;;16.54;91.59
60817;BME280;51921;51.518;-3.188;2023-08-21T04:39:04;101943.57;;;17.09;89.87
60817;BME280;51921;51.518;-3.188;2023-08-21T04:41:29;101945.73;;;16.31;93.68
60817;BME280;51921;51.518;-3.188;2023-08-21T04:43:55;101942.84;;;19.68;78.17
60817;BME280;51921;51.518;-3.188;2023-08-21T04:46:20;101946.01;;;19.81;77.40
60817;BME280;51921;51.518;-3.188;2023-08-21T04:48:45;101952.78;;;17.23;90.63
60817;BME280;51921;51.518;-3.188;2023-08-21T04:51:10;101953.83;;;17.13;89.56
60817;BME280;51921;51.518;-3.188;2023-08-21T04:53:36;101947.83;;;18.02;84.27
60817;BME280;51921;51.518;-3.188;2023-08-21T04:56:01;101950.70;;;17.48;88.32
60817;BME280;51921;51.518;-3.188;2023-08-21T04:58:26;101955.93;;;16.49;94.06
60817;BME280;51921;51.518;-3.188;2023-08-21T05:00:52;101958.96;;;17.19;90.91
60817;BME280;51921;51.518;-3.188;2023-08-21T05:03:17;101958.41;;;17.20;91.12
60817;BME280;51921;51.518;-3.188;2023-08-21T05:05:51;101953.02;;;17.37;91.44
60817;BME280;51921;51.518;-3.188;2023-08-21T05:08:08;101947.90;;;17.75;89.80
60817;BME280;51921;51.518;-3.188;2023-08-21T05:10:33;101948.29;;;17.38;90.67
60817;BME280;51921;51.518;-3.188;2023-08-21T05:12:58;101945.85;;;18.48;85.56
60817;BME280;51921;51.518;-3.188;2023-08-21T05:15:24;101943.40;;;17.74;86.52
60817;BME280;51921;51.518;-3.188;2023-08-21T05:17:49;101950.89;;;17.30;89.42
60817;BME280;51921;51.518;-3.188;2023-08-21T05:20:14;101947.27;;;18.01;85.29
60817;BME280;51921;51.518;-3.188;2023-08-21T05:22:39;101950.43;;;18.10;86.39
60817;BME280;51921;51.518;-3.188;2023-08-21T05:25:06;101949.64;;;18.30;85.04
60817;BME280;51921;51.518;-3.188;2023-08-21T05:27:30;101950.99;;;17.74;84.99
60817;BME280;51921;51.518;-3.188;2023-08-21T05:29:55;101950.48;;;18.76;83.55
60817;BME280;51921;51.518;-3.188;2023-08-21T05:32:21;101949.14;;;18.34;83.47
60817;BME280;51921;51.518;-3.188;2023-08-21T05:34:46;101947.70;;;18.56;82.26
60817;BME280;51921;51.518;-3.188;2023-08-21T05:37:11;101950.35;;;19.40;79.11
60817;BME280;51921;51.518;-3.188;2023-08-21T05:39:37;101955.53;;;18.86;78.65
60817;BME280;51921;51.518;-3.188;2023-08-21T05:42:02;101953.76;;;19.75;76.06
60817;BME280;51921;51.518;-3.188;2023-08-21T05:44:27;101956.13;;;19.58;77.62
60817;BME280;51921;51.518;-3.188;2023-08-21T05:46:53;101956.09;;;19.38;78.24
60817;BME280;51921;51.518;-3.188;2023-08-21T05:49:18;101957.16;;;17.39;88.47
60817;BME280;51921;51.518;-3.188;2023-08-21T05:51:43;101954.84;;;17.60;87.97
60817;BME280;51921;51.518;-3.188;2023-08-21T05:54:09;101958.17;;;17.89;88.36
60817;BME280;51921;51.518;-3.188;2023-08-21T05:56:34;101964.02;;;17.93;88.63
60817;BME280;51921;51.518;-3.188;2023-08-21T05:59:00;101964.31;;;18.09;86.44
60817;BME280;51921;51.518;-3.188;2023-08-21T06:01:25;101963.85;;;17.81;88.18
60817;BME280;51921;51.518;-3.188;2023-08-21T06:03:50;101965.75;;;18.72;87.14
60817;BME280;51921;51.518;-3.188;2023-08-21T06:06:16;101966.18;;;20.17;77.91
60817;BME280;51921;51.518;-3.188;2023-08-21T06:08:41;101970.73;;;18.35;86.19
60817;BME280;51921;51.518;-3.188;2023-08-21T06:11:06;101966.94;;;18.43;85.81
60817;BME280;51921;51.518;-3.188;2023-08-21T06:13:32;101966.50;;;19.36;82.59
60817;BME280;51921;51.518;-3.188;2023-08-21T06:15:57;101966.72;;;19.76;80.14
60817;BME280;51921;51.518;-3.188;2023-08-21T06:18:22;101970.01;;;19.29;79.90
60817;BME280;51921;51.518;-3.188;2023-08-21T06:20:48;101973.14;;;17.30;92.44
60817;BME280;51921;51.518;-3.188;2023-08-21T06:23:13;101971.54;;;14.40;100.00
60817;BME280;51921;51.518;-3.188;2023-08-21T06:25:38;101972.02;;;15.05;100.00
60817;BME280;51921;51.518;-3.188;2023-08-21T06:28:04;101973.85;;;16.09;100.00
60817;BME280;51921;51.518;-3.188;2023-08-21T06:30:29;101973.52;;;17.57;100.00
60817;BME280;51921;51.518;-3.188;2023-08-21T06:32:55;101981.23;;;16.68;100.00
60817;BME280;51921;51.518;-3.188;2023-08-21T06:35:20;101976.26;;;17.09;100.00
60817;BME280;51921;51.518;-3.188;2023-08-21T06:37:45;101977.58;;;17.18;100.00
60817;BME280;51921;51.518;-3.188;2023-08-21T06:40:11;101971.61;;;18.34;97.33
60817;BME280;51921;51.518;-3.188;2023-08-21T06:42:36;101973.17;;;17.34;100.00
60817;BME280;51921;51.518;-3.188;2023-08-21T06:45:01;101976.02;;;16.87;100.00
60817;BME280;51921;51.518;-3.188;2023-08-21T06:47:26;101976.73;;;18.54;95.56
60817;BME280;51921;51.518;-3.188;2023-08-21T06:49:52;101978.29;;;18.11;98.12
60817;BME280;51921;51.518;-3.188;2023-08-21T06:52:17;101978.07;;;18.14;97.25
60817;BME280;51921;51.518;-3.188;2023-08-21T06:54:42;101982.40;;;17.31;100.00
60817;BME280;51921;51.518;-3.188;2023-08-21T06:57:08;101976.70;;;17.90;99.05
60817;BME280;51921;51.518;-3.188;2023-08-21T06:59:33;101978.80;;;18.61;95.78
60817;BME280;51921;51.518;-3.188;2023-08-21T07:01:58;101977.09;;;19.57;90.06
60817;BME280;51921;51.518;-3.188;2023-08-21T07:04:24;101984.97;;;18.55;95.65
60817;BME280;51921;51.518;-3.188;2023-08-21T07:06:49;101989.21;;;16.75;100.00
60817;BME280;51921;51.518;-3.188;2023-08-21T07:09:14;101983.43;;;17.84;99.76
60817;BME280;51921;51.518;-3.188;2023-08-21T07:11:40;101984.60;;;17.26;100.00
60817;BME280;51921;51.518;-3.188;2023-08-21T07:14:05;101988.14;;;17.51;100.00
60817;BME280;51921;51.518;-3.188;2023-08-21T07:16:30;101986.09;;;16.38;100.00
60817;BME280;51921;51.518;-3.188;2023-08-21T07:18:56;101983.40;;;18.63;99.23
60817;BME280;51921;51.518;-3.188;2023-08-21T07:21:21;101983.07;;;17.64;100.00
60817;BME280;51921;51.518;-3.188;2023-08-21T07:23:46;101985.95;;;17.39;100.00
60817;BME280;51921;51.518;-3.188;2023-08-21T07:26:12;101987.46;;;17.17;100.00
60817;BME280;51921;51.518;-3.188;2023-08-21T07:28:37;101984.61;;;17.69;100.00
60817;BME280;51921;51.518;-3.188;2023-08-21T07:31:02;101986.13;;;18.15;100.00
60817;BME280;51921;51.518;-3.188;2023-08-21T07:33:28;101988.09;;;17.04;100.00
60817;BME280;51921;51.518;-3.188;2023-08-21T07:35:59;101985.22;;;17.70;100.00
60817;BME280;51921;51.518;-3.188;2023-08-21T07:38:18;101986.90;;;17.61;100.00
60817;BME280;51921;51.518;-3.188;2023-08-21T07:40:44;101983.43;;;17.85;100.00
60817;BME280;51921;51.518;-3.188;2023-08-21T07:43:09;101979.98;;;18.07;100.00
60817;BME280;51921;51.518;-3.188;2023-08-21T07:45:37;101975.49;;;18.83;98.43
60817;BME280;51921;51.518;-3.188;2023-08-21T07:48:00;101978.40;;;18.07;97.82
60817;BME280;51921;51.518;-3.188;2023-08-21T07:50:25;101981.44;;;17.12;100.00
60817;BME280;51921;51.518;-3.188;2023-08-21T07:52:51;101976.22;;;18.47;96.73
60817;BME280;51921;51.518;-3.188;2023-08-21T07:55:16;101982.19;;;18.77;97.10
60817;BME280;51921;51.518;-3.188;2023-08-21T07:57:41;101983.45;;;18.99;95.59
60817;BME280;51921;51.518;-3.188;2023-08-21T08:00:07;101979.04;;;18.22;98.65
60817;BME280;51921;51.518;-3.188;2023-08-21T08:02:32;101982.43;;;18.54;97.42
60817;BME280;51921;51.518;-3.188;2023-08-21T08:04:57;101979.97;;;18.69;98.33
60817;BME280;51921;51.518;-3.188;2023-08-21T08:07:23;101982.72;;;17.18;100.00
60817;BME280;51921;51.518;-3.188;2023-08-21T08:09:48;101976.25;;;18.73;96.62
60817;BME280;51921;51.518;-3.188;2023-08-21T08:12:13;101974.46;;;18.45;98.11
60817;BME280;51921;51.518;-3.188;2023-08-21T08:14:39;101984.38;;;18.35;95.66
60817;BME280;51921;51.518;-3.188;2023-08-21T08:17:04;101988.04;;;17.84;98.94
60817;BME280;51921;51.518;-3.188;2023-08-21T08:19:29;101982.96;;;18.02;98.73
60817;BME280;51921;51.518;-3.188;2023-08-21T08:21:55;101982.35;;;17.64;100.00
60817;BME280;51921;51.518;-3.188;2023-08-21T08:24:20;101977.17;;;17.98;99.09
60817;BME280;51921;51.518;-3.188;2023-08-21T08:26:45;101980.78;;;18.12;99.26
60817;BME280;51921;51.518;-3.188;2023-08-21T08:29:11;101979.85;;;18.07;99.56
60817;BME280;51921;51.518;-3.188;2023-08-21T08:31:36;101982.36;;;17.93;99.10
60817;BME280;51921;51.518;-3.188;2023-08-21T08:34:01;101981.78;;;18.16;96.83
60817;BME280;51921;51.518;-3.188;2023-08-21T08:36:27;101981.19;;;19.02;91.54
60817;BME280;51921;51.518;-3.188;2023-08-21T08:38:52;101982.45;;;18.82;93.39
60817;BME280;51921;51.518;-3.188;2023-08-21T08:41:24;101977.92;;;19.75;89.23
60817;BME280;51921;51.518;-3.188;2023-08-21T08:43:44;101980.15;;;19.02;91.89
60817;BME280;51921;51.518;-3.188;2023-08-21T08:46:08;101974.48;;;19.13;91.83
60817;BME280;51921;51.518;-3.188;2023-08-21T08:48:34;101971.06;;;19.08;90.78
60817;BME280;51921;51.518;-3.188;2023-08-21T08:50:59;101978.95;;;19.11;90.18
60817;BME280;51921;51.518;-3.188;2023-08-21T08:53:24;101982.97;;;19.41;89.24
60817;BME280;51921;51.518;-3.188;2023-08-21T08:55:49;101990.57;;;18.66;92.72
60817;BME280;51921;51.518;-3.188;2023-08-21T08:58:15;101987.89;;;19.13;89.49
60817;BME280;51921;51.518;-3.188;2023-08-21T09:00:40;101989.82;;;18.89;91.33
60817;BME280;51921;51.518;-3.188;2023-08-21T09:03:05;101983.11;;;18.36;94.01
60817;BME280;51921;51.518;-3.188;2023-08-21T09:05:31;101982.38;;;19.18;90.61
60817;BME280;51921;51.518;-3.188;2023-08-21T09:08:02;101983.76;;;17.34;92.57
60817;BME280;51921;51.518;-3.188;2023-08-21T09:10:25;101978.84;;;17.73;90.23
60817;BME280;51921;51.518;-3.188;2023-08-21T09:12:47;101978.90;;;17.06;93.74
60817;BME280;51921;51.518;-3.188;2023-08-21T09:15:12;101973.13;;;16.55;96.44
60817;BME280;51921;51.518;-3.188;2023-08-21T09:17:37;101972.24;;;17.26;96.73
60817;BME280;51921;51.518;-3.188;2023-08-21T09:20:04;101966.60;;;18.63;87.04
60817;BME280;51921;51.518;-3.188;2023-08-21T09:22:28;101967.44;;;19.35;82.97
60817;BME280;51921;51.518;-3.188;2023-08-21T09:25:02;101970.32;;;19.13;81.09
60817;BME280;51921;51.518;-3.188;2023-08-21T09:27:19;101970.51;;;18.42;85.93
60817;BME280;51921;51.518;-3.188;2023-08-21T09:29:46;101974.93;;;18.76;83.44
60817;BME280;51921;51.518;-3.188;2023-08-21T09:32:10;101975.79;;;17.50;88.84
60817;BME280;51921;51.518;-3.188;2023-08-21T09:34:35;101975.18;;;17.95;86.07
60817;BME280;51921;51.518;-3.188;2023-08-21T09:37:00;101970.02;;;19.35;81.44
60817;BME280;51921;51.518;-3.188;2023-08-21T09:39:32;101970.25;;;18.74;84.60
60817;BME280;51921;51.518;-3.188;2023-08-21T09:41:55;101967.72;;;19.03;84.11
60817;BME280;51921;51.518;-3.188;2023-08-21T09:44:16;101968.59;;;19.75;79.90
60817;BME280;51921;51.518;-3.188;2023-08-21T09:46:41;101965.62;;;18.10;84.62
60817;BME280;51921;51.518;-3.188;2023-08-21T09:49:06;101968.01;;;19.46;80.50
60817;BME280;51921;51.518;-3.188;2023-08-21T09:51:33;101968.92;;;17.50;86.14
60817;BME280;51921;51.518;-3.188;2023-08-21T09:53:58;101964.83;;;17.97;85.54
60817;BME280;51921;51.518;-3.188;2023-08-21T09:56:23;101964.39;;;18.05;86.78
60817;BME280;51921;51.518;-3.188;2023-08-21T09:58:48;101967.80;;;17.73;89.19
60817;BME280;51921;51.518;-3.188;2023-08-21T10:01:14;101960.76;;;17.95;87.95
60817;BME280;51921;51.518;-3.188;2023-08-21T10:03:39;101958.51;;;18.39;85.02
60817;BME280;51921;51.518;-3.188;2023-08-21T10:06:04;101962.02;;;17.57;90.25
60817;BME280;51921;51.518;-3.188;2023-08-21T10:08:30;101959.68;;;17.58;89.64
60817;BME280;51921;51.518;-3.188;2023-08-21T10:10:55;101958.92;;;18.52;84.89
60817;BME280;51921;51.518;-3.188;2023-08-21T10:13:20;101958.73;;;18.60;83.49
60817;BME280;51921;51.518;-3.188;2023-08-21T10:15:45;101959.93;;;17.95;88.29
60817;BME280;51921;51.518;-3.188;2023-08-21T10:18:20;101960.02;;;18.85;84.51
60817;BME280;51921;51.518;-3.188;2023-08-21T10:20:36;101963.00;;;18.83;84.20
60817;BME280;51921;51.518;-3.188;2023-08-21T10:23:01;101965.62;;;17.27;90.77
60817;BME280;51921;51.518;-3.188;2023-08-21T10:25:26;101968.43;;;18.03;90.18
60817;BME280;51921;51.518;-3.188;2023-08-21T10:27:53;101977.39;;;17.61;91.48
60817;BME280;51921;51.518;-3.188;2023-08-21T10:30:21;101980.67;;;17.36;93.92
60817;BME280;51921;51.518;-3.188;2023-08-21T10:32:47;101983.71;;;17.72;92.07
60817;BME280;51921;51.518;-3.188;2023-08-21T10:35:14;101981.22;;;17.60;93.68
60817;BME280;51921;51.518;-3.188;2023-08-21T10:37:33;101974.72;;;18.16;94.03
60817;BME280;51921;51.518;-3.188;2023-08-21T10:39:58;101971.61;;;18.21;91.14
60817;BME280;51921;51.518;-3.188;2023-08-21T10:42:37;101969.35;;;18.69;88.42
60817;BME280;51921;51.518;-3.188;2023-08-21T10:44:51;101979.65;;;18.02;93.11
60817;BME280;51921;51.518;-3.188;2023-08-21T10:47:16;101975.24;;;18.18;91.01
60817;BME280;51921;51.518;-3.188;2023-08-21T10:49:40;101976.25;;;17.74;93.01
60817;BME280;51921;51.518;-3.188;2023-08-21T10:52:05;101969.03;;;18.56;88.60
60817;BME280;51921;51.518;-3.188;2023-08-21T10:56:56;101966.52;;;19.77;83.38
60817;BME280;51921;51.518;-3.188;2023-08-21T10:59:21;101970.03;;;20.64;78.29
60817;BME280;51921;51.518;-3.188;2023-08-21T11:01:46;101971.29;;;19.06;82.75
60817;BME280;51921;51.518;-3.188;2023-08-21T11:04:11;101969.20;;;19.11;80.11
60817;BME280;51921;51.518;-3.188;2023-08-21T11:06:37;101967.36;;;18.54;83.17
60817;BME280;51921;51.518;-3.188;2023-08-21T11:09:03;101965.04;;;18.55;83.10
60817;BME280;51921;51.518;-3.188;2023-08-21T11:11:27;101960.26;;;18.83;82.56
60817;BME280;51921;51.518;-3.188;2023-08-21T11:13:53;101959.19;;;19.48;81.94
60817;BME280;51921;51.518;-3.188;2023-08-21T11:16:18;101955.29;;;18.69;83.82
60817;BME280;51921;51.518;-3.188;2023-08-21T11:18:43;101948.92;;;20.30;79.59
60817;BME280;51921;51.518;-3.188;2023-08-21T11:21:10;101944.19;;;20.12;81.38
60817;BME280;51921;51.518;-3.188;2023-08-21T11:23:34;101933.34;;;19.92;77.15
60817;BME280;51921;51.518;-3.188;2023-08-21T11:25:59;101933.23;;;21.21;72.49
60817;BME280;51921;51.518;-3.188;2023-08-21T11:28:24;101935.08;;;20.25;75.83
60817;BME280;51921;51.518;-3.188;2023-08-21T11:30:50;101934.13;;;22.14;70.81
60817;BME280;51921;51.518;-3.188;2023-08-21T11:33:15;101934.75;;;20.85;70.82
60817;BME280;51921;51.518;-3.188;2023-08-21T11:35:41;101928.41;;;20.61;73.58
60817;BME280;51921;51.518;-3.188;2023-08-21T11:38:06;101931.71;;;19.57;77.05
60817;BME280;51921;51.518;-3.188;2023-08-21T11:40:34;101932.10;;;19.98;74.07
60817;BME280;51921;51.518;-3.188;2023-08-21T11:43:00;101930.16;;;20.32;73.37
60817;BME280;51921;51.518;-3.188;2023-08-21T11:45:22;101928.27;;;20.01;75.25
60817;BME280;51921;51.518;-3.188;2023-08-21T11:47:47;101931.01;;;19.66;77.06
60817;BME280;51921;51.518;-3.188;2023-08-21T11:50:14;101932.10;;;19.97;73.65
60817;BME280;51921;51.518;-3.188;2023-08-21T11:52:38;101934.78;;;19.29;78.74
60817;BME280;51921;51.518;-3.188;2023-08-21T11:55:07;101934.67;;;19.76;76.00
60817;BME280;51921;51.518;-3.188;2023-08-21T11:57:28;101930.64;;;19.14;80.91
60817;BME280;51921;51.518;-3.188;2023-08-21T11:59:54;101932.95;;;19.79;78.12
60817;BME280;51921;51.518;-3.188;2023-08-21T12:02:22;101928.30;;;19.67;77.71
60817;BME280;51921;51.518;-3.188;2023-08-21T12:04:44;101934.38;;;18.63;82.62
60817;BME280;51921;51.518;-3.188;2023-08-21T12:07:10;101929.65;;;19.14;79.01
60817;BME280;51921;51.518;-3.188;2023-08-21T12:09:35;101928.39;;;19.08;81.08
60817;BME280;51921;51.518;-3.188;2023-08-21T12:12:00;101929.22;;;19.68;78.82
60817;BME280;51921;51.518;-3.188;2023-08-21T12:14:27;101927.86;;;20.06;78.87
60817;BME280;51921;51.518;-3.188;2023-08-21T12:16:51;101924.44;;;20.36;77.14
60817;BME280;51921;51.518;-3.188;2023-08-21T12:19:16;101925.85;;;20.79;74.60
60817;BME280;51921;51.518;-3.188;2023-08-21T12:21:41;101926.78;;;21.54;72.52
60817;BME280;51921;51.518;-3.188;2023-08-21T12:24:07;101920.27;;;21.56;70.98
60817;BME280;51921;51.518;-3.188;2023-08-21T12:26:32;101914.47;;;21.31;71.28
60817;BME280;51921;51.518;-3.188;2023-08-21T12:28:57;101912.99;;;20.36;74.18